General Aviation Weather

Text Reports

Enter one or more of the following location identifiers separated by a space:

Zip Code, Four-Character ICAO or Three-Character IATA airport codes.

METAR - Aviation Routine Weather Report
YMAV - Avalon,
Updated at 11:30 PM GMT on July 31, 2014 (9:30 AM EST):
SPECI YMAV 312330Z AUTO 32024G37KT 9999 // NCD 08/02 Q1002
TAF - Terminal Area Forecast
YMAV - Avalon,
Updated at 11:30 PM GMT on July 31, 2014 (9:30 AM EST):
TAF YMAV 312305Z 0100/0124 30023G40KT 9999 -SHRA SCT035 SCT060
     FM010100 23023G36KT 9999 SHRA SCT030 SCT050
      BECMG 0108/0109 24012KT 9999 -SHRA SCT035 SCT060
      BECMG 0119/0121 28012KT 9999 SCT045 SCT060
      INTER 0100/0110 4000 SHRAGS BKN020 PROB30
      INTER 0101/0107 21028G42KT 3000 TSRAGS BKN015 SCT030CB=
TAF AMD YWLM 312312Z 0100/0118 31017G28KT CAVOK
     FM010100 28020G30KT 9999 SCT045
     FM010800 30010KT CAVOK=
Decoded:
ID: YMAV
REPORT TIME: 31 23: 5
VALID TIME: 1 July AT 00:00Z to 1 July AT 24:00Z.
INITIAL WX
   WINDS: 300 AT 23 GUST 40
   WEATHER: -SHRA
   CLOUDS: 35 SCT
   CLOUDS: 60 SCT
NEW WX STARTING: 01:00Z
   WINDS: 230 AT 23 GUST 36
   WEATHER: SHRA
   CLOUDS: 30 SCT
   CLOUDS: 50 SCT
WX BECOMING FROM 08Z TO 09Z
   WINDS: 240 AT 12
   WEATHER: -SHRA
   CLOUDS: 35 SCT
   CLOUDS: 60 SCT
WX BECOMING FROM 19Z TO 21Z
   WINDS: 280 AT 12
   CLOUDS: 45 SCT
   CLOUDS: 60 SCT
   COMMENTS: INTER 0100/0110 4000 SHRAGS BKN020 
30% PROBABILITY OF WX 
   WEATHER: INTER
   COMMENTS: 0101/0107 21028G42KT 3000 TSRAGS BKN015 SCT030CB= 

PIREP - Pilot Weather Report
YMAV - Avalon,
Updated at 11:30 PM GMT on July 31, 2014 (9:30 AM EST):
No PIREP is currently available for this location.
AIRMET - Airmens Meteorological Information
YMAV - Avalon,
Updated at 11:30 PM GMT on July 31, 2014 (9:30 AM EST):
No AIRMET is currently available for this location.
SIGMET - Significant Meteorological Information
YMAV - Avalon,
Updated at 11:30 PM GMT on July 31, 2014 (9:30 AM EST):
No SIGMET is currently available for this location.
NOTAM - Notice to Airmen
YMAV - Avalon,
Updated at 11:30 PM GMT on July 31, 2014 (9:30 AM EST):
No NOTAM is currently available for this location.
Forecast Area
YMAV - Avalon,
Updated at 11:30 PM GMT on July 31, 2014 (9:30 AM EST):
No NOTAM is currently available for this location.
Aviation Weather Maps